Terminal Aerodrome Forecast
Issued by NWS

Home | Current Version | Previous Version | Text Only | Print | Product List | Glossary On
Versions: 1 2 3 4 5 6 7 8 9 10 11 12 13 14 15 16 17 18 19
000
FTUS46 KPQR 271729
TAFONP
TAF
KONP 271729Z 2718/2818 36012G19KT P6SM BKN007
     FM271900 35014G22KT P6SM SKC
     FM272200 35019G27KT P6SM SKC
     FM280300 36012G19KT P6SM SCT005
     FM280700 36005KT 4SM BR BKN005=

USA.gov is the U.S. government's official web portal to all federal, state and local government web resources and services.